La Monte, MO (65337)

6:49 PM CDT on August 02, 2015 (GMT -0500)
Whiteman Air Force Base | | Change Station
CLOSE
Current Station
Airport
Location: Whiteman AFB,
Elevation: 869 ft
Nearby Weather Stations

Elev 869 ft 38.73 °N, 93.55 °W | Updated 51 minutes ago

Clear
Clear
92 °F
Feels Like 96 °F
N
12
Wind Variable Wind from SW

Today
High -- | Low -- °F
--% Chance of Precip.
Yesterday
High -- | Low -- °F
Precip. -- in
6:15 AM 8:23 PM
Waning Gibbous, 91% visible
Pressure 29.84 in
Visibility 10.0 miles
Clouds Clear
Heat Index 96 °F
Dew Point 68 °F
Humidity 44%
Rainfall 0.00 in
Snow Depth Not available.
UV 2 out of 12
Pollen 7.50 out of 12
Air Quality Not available.
Flu Activity Not available.
METAR KSZL 022258Z AUTO 23010KT 10SM CLR 34/20 A2985 RMK AO2 SLP103 T03350197

More Conditions Fewer Conditions

Pressure 29.84 in
Visibility 10.0 miles
Clouds Clear
Heat Index 96 °F
Dew Point 68 °F
Humidity 44%
Rainfall 0.00 in
Snow Depth Not available.
UV 2 out of 12
Pollen 7.50 out of 12
Air Quality Not available.
Flu Activity Not available.
METAR KSZL 022258Z AUTO 23010KT 10SM CLR 34/20 A2985 RMK AO2 SLP103 T03350197

More Conditions Fewer Conditions

10-Day Weather Forecast

×

Almanac

Astronomy

Aug. 02, 2015 Rise Set
Actual Time
Civil Twilight
Nautical Twilight
Astronomical Twilight
Moon
Length of Visible Light
Length of Day
Tomorrow will be .
, % of the Moon is Illuminated

Today's Extremes

State Highs State Lows

Community

WunderPhotos

Upload Photos

1,843,428 photos uploaded!

WunderBlogs® & News

Nearby

Air Quality

  Air Quality AQ Index Pollutant
Not available.

Snow Depth

Station Depth Elevation

Earthquake Activity

City Distance Mag. Time & Date
Minimum magnitude displayed is 2.5.

Coastal Water Temperatures

Place Temperature

Stations

Nearby Weather Stations

Station Location Temp. Windchill Dew Point Humidity Wind Precip. Elev Updated Type